Time;durP1;ratioP1;P1;durP2;ratioP2;P2;SDS_P1;SDS_P2;PMS_P1;PMS_P2;Temp;Humidity;BMP_temperature;BMP_pressure;BME280_temperature;BME280_humidity;BME280_pressure;Samples;Min_cycle;Max_cycle;Signal;HPM_P1;HPM_P2
2022/08/10 00:00:21;;;;;;;2.55;1.10;;;;;;;22.02;46.07;100829.66;5029436;28;20495;-81
2022/08/10 00:02:58;;;;;;;2.20;1.50;;;;;;;21.90;46.19;100814.81;5026362;28;20540;-81
2022/08/10 00:05:26;;;;;;;5.15;1.92;;;;;;;21.93;46.32;100825.34;5023868;28;20069;-81
2022/08/10 00:07:52;;;;;;;3.13;1.10;;;;;;;22.05;46.59;100853.00;5024501;28;20516;-81
2022/08/10 00:10:19;;;;;;;4.32;1.65;;;;;;;21.79;46.57;100811.75;5044172;28;20041;-81
2022/08/10 00:12:45;;;;;;;4.57;1.40;;;;;;;21.78;46.76;100815.53;5030055;28;20104;-82
2022/08/10 00:15:14;;;;;;;4.68;1.50;;;;;;;21.89;47.09;100847.78;5028791;28;20546;-80
2022/08/10 00:17:40;;;;;;;3.38;1.45;;;;;;;21.72;47.09;100833.53;5043028;28;20041;-81
2022/08/10 00:20:06;;;;;;;1.98;1.15;;;;;;;21.80;46.80;100849.81;5023393;28;20041;-81
2022/08/10 00:22:32;;;;;;;4.03;1.02;;;;;;;21.61;47.17;100828.56;5016195;28;20112;-81
2022/08/10 00:24:58;;;;;;;5.88;1.50;;;;;;;21.70;47.47;100843.78;5022560;28;20137;-81
2022/08/10 00:27:24;;;;;;;5.18;1.60;;;;;;;21.68;47.56;100851.34;5025200;28;20029;-80
2022/08/10 00:29:49;;;;;;;3.47;1.30;;;;;;;21.59;47.42;100836.09;5025165;28;20042;-80
2022/08/10 00:32:15;;;;;;;5.43;1.77;;;;;;;21.52;47.56;100829.72;5028112;28;20029;-81
2022/08/10 00:34:40;;;;;;;2.75;1.20;;;;;;;21.34;47.43;100795.69;5026187;28;20083;-81
2022/08/10 00:37:06;;;;;;;4.82;1.27;;;;;;;21.62;47.64;100852.09;5026188;28;20045;-80
2022/08/10 00:39:31;;;;;;;2.95;1.30;;;;;;;21.53;47.70;100831.41;5022303;28;20036;-78
2022/08/10 00:41:57;;;;;;;3.78;1.38;;;;;;;21.41;47.72;100813.03;5026472;28;20123;-79
2022/08/10 00:44:23;;;;;;;1.40;1.17;;;;;;;21.42;47.88;100825.63;5023178;28;20049;-80
2022/08/10 00:46:48;;;;;;;3.08;1.30;;;;;;;21.52;47.75;100843.38;5006677;28;20160;-81
2022/08/10 00:49:14;;;;;;;4.32;1.23;;;;;;;21.28;47.79;100810.97;5011534;28;20025;-81
2022/08/10 00:51:40;;;;;;;1.85;1.20;;;;;;;21.49;47.86;100849.22;5016250;28;20038;-79
2022/08/10 00:54:07;;;;;;;4.00;1.52;;;;;;;21.43;47.88;100830.88;5021794;28;20364;-81
2022/08/10 00:56:33;;;;;;;2.80;1.80;;;;;;;21.34;47.82;100821.09;5018605;28;20483;-81
2022/08/10 00:58:59;;;;;;;2.05;1.02;;;;;;;21.30;48.01;100819.81;5019234;28;20040;-81
2022/08/10 01:01:25;;;;;;;4.90;1.42;;;;;;;21.31;48.09;100820.66;5013732;28;20687;-81
2022/08/10 01:03:50;;;;;;;3.03;1.80;;;;;;;21.31;48.04;100831.59;5015679;28;20025;-80
2022/08/10 01:06:34;;;;;;;2.63;1.10;;;;;;;21.31;48.14;100834.31;5034531;28;20028;-79
2022/08/10 01:09:26;;;;;;;4.22;1.52;;;;;;;21.35;48.19;100839.16;5020283;28;20388;-80
2022/08/10 01:12:03;;;;;;;3.35;1.65;;;;;;;21.33;48.16;100841.25;5021136;28;20089;-80
2022/08/10 01:15:10;;;;;;;1.85;1.27;;;;;;;21.31;48.27;100842.50;5011668;28;20041;-81
2022/08/10 01:17:38;;;;;;;1.83;1.30;;;;;;;21.30;48.31;100840.78;4985503;28;20046;-80
2022/08/10 01:20:28;;;;;;;5.07;1.35;;;;;;;21.28;48.33;100851.06;5010400;28;20120;-82
2022/08/10 01:23:25;;;;;;;3.05;1.23;;;;;;;21.27;48.42;100843.88;5012156;28;20041;-82
2022/08/10 01:26:06;;;;;;;4.35;1.30;;;;;;;21.27;48.56;100846.63;5018066;28;20048;-81
2022/08/10 01:29:02;;;;;;;6.50;1.40;;;;;;;21.25;48.78;100843.25;5018477;28;20081;-82
2022/08/10 01:31:36;;;;;;;4.18;1.65;;;;;;;21.15;48.75;100829.06;5016969;28;20063;-82
2022/08/10 01:34:08;;;;;;;7.05;1.65;;;;;;;21.16;48.71;100833.47;5007224;28;20376;-82
2022/08/10 01:36:58;;;;;;;3.22;1.35;;;;;;;21.25;48.56;100851.44;5025360;28;20099;-80
2022/08/10 01:39:31;;;;;;;3.25;1.35;;;;;;;21.24;48.81;100853.31;5013923;28;20400;-81
2022/08/10 01:42:00;;;;;;;6.20;1.40;;;;;;;21.04;48.87;100822.22;5014987;28;20148;-81
2022/08/10 01:44:39;;;;;;;3.00;1.50;;;;;;;21.21;48.92;100850.09;5026262;28;20026;-79
2022/08/10 01:49:59;;;;;;;1.77;1.23;;;;;;;21.09;49.24;100838.00;5022369;28;20044;-82
2022/08/10 01:52:26;;;;;;;2.40;1.40;;;;;;;21.06;49.42;100839.25;5022914;28;22335;-80
2022/08/10 01:54:55;;;;;;;6.60;1.50;;;;;;;20.95;49.50;100819.75;5027578;28;20488;-81
2022/08/10 01:57:23;;;;;;;2.83;1.40;;;;;;;21.02;49.57;100835.19;5027627;28;20033;-81
2022/08/10 01:59:51;;;;;;;3.42;1.50;;;;;;;20.99;49.70;100834.72;5022930;28;20049;-81
2022/08/10 02:02:18;;;;;;;4.55;1.50;;;;;;;20.98;49.79;100835.75;5021627;28;20784;-82
2022/08/10 02:04:48;;;;;;;2.67;1.38;;;;;;;20.93;49.95;100832.72;5027177;28;20064;-81
2022/08/10 02:07:20;;;;;;;7.55;1.35;;;;;;;20.82;50.19;100811.34;5028235;28;20499;-81
2022/08/10 02:09:50;;;;;;;3.50;1.42;;;;;;;20.87;50.29;100826.13;5020533;28;20128;-82
2022/08/10 02:12:19;;;;;;;2.08;1.30;;;;;;;20.97;50.33;100854.00;5026175;28;20021;-80
2022/08/10 02:14:52;;;;;;;4.93;1.60;;;;;;;20.87;50.26;100833.47;5028139;28;20095;-80
2022/08/10 02:17:21;;;;;;;4.30;1.70;;;;;;;20.91;50.60;100846.53;5026572;28;20025;-81
2022/08/10 02:19:48;;;;;;;3.83;1.80;;;;;;;20.87;50.52;100847.97;5018206;28;20116;-81
2022/08/10 02:22:16;;;;;;;6.55;1.50;;;;;;;20.83;50.43;100837.59;5027931;28;20084;-81
2022/08/10 02:24:43;;;;;;;5.45;1.83;;;;;;;20.72;50.87;100814.38;5027534;28;20670;-80
2022/08/10 02:27:10;;;;;;;2.60;1.35;;;;;;;20.83;51.04;100841.16;5023324;28;20033;-82
2022/08/10 02:29:37;;;;;;;3.03;1.35;;;;;;;20.77;51.24;100838.34;5028163;28;20056;-81
2022/08/10 02:32:05;;;;;;;4.70;1.30;;;;;;;20.65;51.28;100818.03;5030903;28;20029;-80
2022/08/10 02:34:32;;;;;;;3.60;1.40;;;;;;;20.68;51.35;100834.00;5030418;28;20021;-80
2022/08/10 02:37:02;;;;;;;5.82;1.75;;;;;;;20.49;51.90;100816.34;5028489;28;20107;-80
2022/08/10 02:39:30;;;;;;;2.75;1.40;;;;;;;20.61;51.95;100852.16;5028087;28;20479;-81
2022/08/10 02:42:01;;;;;;;7.88;1.88;;;;;;;20.42;51.95;100825.44;5030860;28;20055;-80
2022/08/10 02:44:47;;;;;;;1.58;1.48;;;;;;;20.45;52.23;100845.00;5022039;28;20037;-80
2022/08/10 02:48:00;;;;;;;6.72;1.77;;;;;;;20.52;52.46;100866.91;5028606;28;20033;-80
2022/08/10 02:50:33;;;;;;;3.60;1.55;;;;;;;20.43;52.69;100851.66;5017578;28;20069;-81
2022/08/10 02:53:21;;;;;;;6.70;1.92;;;;;;;20.32;52.61;100841.22;5029501;28;20041;-81
2022/08/10 02:55:58;;;;;;;5.40;1.67;;;;;;;20.39;52.94;100863.94;5029875;28;20033;-81
2022/08/10 02:58:39;;;;;;;4.72;1.70;;;;;;;20.14;52.79;100828.78;5023424;28;20033;-80
2022/08/10 03:01:09;;;;;;;3.58;1.80;;;;;;;20.26;53.10;100845.53;5024954;28;20064;-80
2022/08/10 03:03:43;;;;;;;3.58;1.40;;;;;;;20.32;53.01;100869.31;5029083;28;20530;-81
2022/08/10 03:06:14;;;;;;;2.30;1.20;;;;;;;20.22;53.46;100855.09;5030687;28;20360;-79
2022/08/10 03:08:42;;;;;;;3.35;1.58;;;;;;;20.26;53.23;100858.28;5023742;28;20072;-80
2022/08/10 03:11:16;;;;;;;6.75;1.75;;;;;;;20.16;53.62;100848.47;5025791;28;20506;-79
2022/08/10 03:13:43;;;;;;;3.10;1.50;;;;;;;20.07;53.64;100846.84;5028966;28;20119;-79
2022/08/10 03:16:09;;;;;;;6.03;1.67;;;;;;;20.06;53.98;100855.19;5029705;28;20285;-79
2022/08/10 03:18:36;;;;;;;2.28;1.45;;;;;;;20.09;54.22;100868.47;5018325;28;20686;-79
2022/08/10 03:21:02;;;;;;;2.85;1.50;;;;;;;20.05;54.10;100869.81;5027376;28;20861;-79
2022/08/10 03:23:28;;;;;;;7.97;2.10;;;;;;;19.92;54.31;100858.69;5028066;28;20037;-79
2022/08/10 03:25:57;;;;;;;4.65;1.65;;;;;;;19.98;54.34;100864.28;5026406;28;20037;-79
2022/08/10 03:28:25;;;;;;;9.98;2.65;;;;;;;19.84;54.59;100856.03;5023532;28;20503;-79
2022/08/10 03:30:52;;;;;;;3.72;1.80;;;;;;;19.78;54.69;100840.44;5026599;28;20057;-79
2022/08/10 03:33:19;;;;;;;4.28;2.13;;;;;;;19.83;54.94;100867.97;5026528;28;20033;-79
2022/08/10 03:35:45;;;;;;;3.28;1.35;;;;;;;19.74;55.08;100850.81;5026893;28;20095;-79
2022/08/10 03:38:10;;;;;;;4.80;1.88;;;;;;;19.74;54.90;100858.16;5018371;28;20045;-79
2022/08/10 03:40:39;;;;;;;5.78;1.52;;;;;;;19.76;54.99;100870.56;5024554;28;20121;-78
2022/08/10 03:43:07;;;;;;;2.35;1.58;;;;;;;19.80;55.15;100871.88;5018232;28;20033;-80
2022/08/10 03:45:33;;;;;;;5.18;1.85;;;;;;;19.72;55.33;100869.22;5027785;28;20109;-79
2022/08/10 03:48:00;;;;;;;4.78;1.83;;;;;;;19.73;55.54;100868.19;5022609;28;20543;-79
2022/08/10 03:50:28;;;;;;;5.53;1.55;;;;;;;19.61;55.48;100853.28;5026617;28;20112;-79
2022/08/10 03:52:55;;;;;;;4.45;1.75;;;;;;;19.86;55.39;100900.25;5027717;28;20036;-79
2022/08/10 03:55:23;;;;;;;15.52;1.65;;;;;;;19.84;55.85;100889.56;5027450;28;20354;-78
2022/08/10 03:57:49;;;;;;;3.17;1.70;;;;;;;19.66;55.90;100858.19;5023290;28;20122;-79
2022/08/10 04:00:17;;;;;;;5.40;1.70;;;;;;;19.82;56.07;100891.63;5027408;28;20045;-79
2022/08/10 04:02:45;;;;;;;3.20;1.50;;;;;;;19.82;56.36;100890.75;5026754;28;20018;-79
2022/08/10 04:05:14;;;;;;;4.35;1.90;;;;;;;19.66;56.36;100852.75;5022479;28;20034;-80
2022/08/10 04:07:42;;;;;;;6.38;1.80;;;;;;;19.85;56.53;100891.25;5009086;28;20025;-80
2022/08/10 04:10:07;;;;;;;8.25;2.10;;;;;;;19.71;56.99;100866.69;5012232;28;20084;-80
2022/08/10 04:12:33;;;;;;;5.13;1.90;;;;;;;19.91;57.20;100903.28;5013264;28;20021;-80
2022/08/10 04:14:58;;;;;;;3.22;1.80;;;;;;;19.80;56.83;100884.66;5011129;28;20041;-81
2022/08/10 04:17:25;;;;;;;4.15;2.05;;;;;;;19.87;57.55;100885.63;5010610;28;20038;-79
2022/08/10 04:19:52;;;;;;;9.55;2.15;;;;;;;19.71;57.44;100859.38;5008660;28;20399;-80
2022/08/10 04:22:21;;;;;;;6.88;1.98;;;;;;;19.83;57.50;100871.53;5010001;28;20029;-79
2022/08/10 04:24:50;;;;;;;4.97;1.70;;;;;;;19.83;57.04;100868.81;5007178;28;20044;-80
2022/08/10 04:27:15;;;;;;;7.72;1.80;;;;;;;19.80;56.26;100866.44;5008846;28;20491;-80
2022/08/10 04:29:42;;;;;;;8.80;1.85;;;;;;;20.10;55.95;100898.25;5015400;28;20057;-80
2022/08/10 04:32:09;;;;;;;3.72;1.50;;;;;;;20.19;55.83;100894.44;5026990;28;20025;-80
2022/08/10 04:34:39;;;;;;;4.68;1.85;;;;;;;20.37;55.53;100913.19;5025465;28;20494;-80
2022/08/10 04:37:06;;;;;;;4.60;1.98;;;;;;;20.40;56.25;100907.38;5027323;28;20036;-80
2022/08/10 04:39:32;;;;;;;10.30;2.25;;;;;;;20.20;55.57;100859.88;5028740;28;20037;-80
2022/08/10 04:41:58;;;;;;;8.27;2.38;;;;;;;20.27;55.57;100852.66;5028389;28;20040;-81
2022/08/10 04:44:24;;;;;;;10.82;2.33;;;;;;;20.49;55.81;100879.03;5043230;28;20402;-81
2022/08/10 04:46:49;;;;;;;6.30;2.20;;;;;;;20.41;55.23;100854.56;5026509;28;20033;-81
2022/08/10 04:49:15;;;;;;;8.15;1.98;;;;;;;20.71;55.31;100888.19;5035543;28;20495;-81
2022/08/10 04:51:40;;;;;;;7.13;1.42;;;;;;;20.82;54.83;100893.16;5022374;28;20029;-81
2022/08/10 04:54:06;;;;;;;5.18;1.80;;;;;;;20.95;54.45;100896.13;5024145;28;20025;-81
2022/08/10 04:56:31;;;;;;;2.78;1.58;;;;;;;21.01;54.37;100884.47;5025951;28;20017;-80
2022/08/10 04:58:57;;;;;;;5.55;1.63;;;;;;;21.16;54.22;100872.53;5024602;28;20029;-80
2022/08/10 05:01:22;;;;;;;8.57;2.05;;;;;;;21.48;53.08;100906.75;5019043;28;20029;-75
2022/08/10 05:03:48;;;;;;;4.70;1.92;;;;;;;21.51;53.41;100892.72;5022245;28;20842;-75
2022/08/10 05:06:13;;;;;;;4.53;1.50;;;;;;;21.68;52.95;100894.19;5029843;28;20036;-75
2022/08/10 05:08:39;;;;;;;9.75;1.88;;;;;;;21.79;52.38;100883.63;5028983;28;20111;-75
2022/08/10 05:11:05;;;;;;;5.90;1.65;;;;;;;21.94;52.19;100899.97;5027350;28;20030;-75
2022/08/10 05:13:30;;;;;;;4.40;1.45;;;;;;;21.95;51.72;100882.53;5028375;28;20026;-75
2022/08/10 05:15:56;;;;;;;7.47;2.03;;;;;;;21.97;51.42;100861.34;5030127;28;20037;-75
2022/08/10 05:18:21;;;;;;;11.25;1.90;;;;;;;22.15;51.01;100881.69;5028223;28;20045;-75
2022/08/10 05:20:47;;;;;;;8.35;1.90;;;;;;;22.12;50.88;100852.03;5028263;28;20022;-75
2022/08/10 05:23:13;;;;;;;7.03;1.45;;;;;;;22.51;50.62;100903.50;5028624;28;20022;-75
2022/08/10 05:25:38;;;;;;;4.07;2.00;;;;;;;22.52;50.38;100888.78;5029690;28;20034;-75
2022/08/10 05:28:04;;;;;;;4.82;1.98;;;;;;;22.69;49.98;100892.91;5026988;28;20061;-75
2022/08/10 05:30:29;;;;;;;6.45;1.63;;;;;;;22.57;49.79;100848.00;5028627;28;20106;-75
2022/08/10 05:32:55;;;;;;;3.35;1.90;;;;;;;22.91;49.41;100878.13;5030179;28;20049;-75
2022/08/10 13:47:30;;;;;;;6.15;1.30;;;;;;;29.47;27.68;100653.88;6232050;22;1394713;-65
2022/08/10 13:50:05;;;;;;;6.93;1.50;;;;;;;29.57;27.42;100667.88;6280717;22;20011;-65
2022/08/10 13:52:33;;;;;;;10.07;1.88;;;;;;;29.59;27.30;100665.69;6280500;22;20003;-65
2022/08/10 13:55:00;;;;;;;3.28;1.50;;;;;;;29.60;27.10;100673.72;6281126;22;20006;-65
2022/08/10 13:57:32;;;;;;;25.00;1.98;;;;;;;29.53;27.55;100650.94;6280825;22;20003;-65
2022/08/10 13:59:59;;;;;;;6.22;1.67;;;;;;;29.60;27.21;100659.91;6279096;22;19999;-65
2022/08/10 14:02:42;;;;;;;3.53;1.25;;;;;;;29.68;26.87;100661.44;6281748;22;20003;-63
2022/08/10 14:05:08;;;;;;;15.02;2.17;;;;;;;29.68;27.18;100655.91;6281335;22;20004;-64
2022/08/10 14:07:39;;;;;;;20.58;2.83;;;;;;;29.72;27.27;100657.09;6280796;22;20015;-64
2022/08/10 14:10:08;;;;;;;13.82;2.33;;;;;;;29.83;26.58;100658.94;6281055;22;19999;-65
2022/08/10 14:12:42;;;;;;;9.77;1.77;;;;;;;29.83;26.63;100648.72;6280044;22;20380;-65
2022/08/10 14:15:13;;;;;;;4.40;1.17;;;;;;;29.79;27.05;100643.94;6279807;22;20018;-64
2022/08/10 14:17:41;;;;;;;3.63;1.20;;;;;;;29.82;26.95;100651.75;6281426;22;19999;-64
2022/08/10 14:20:08;;;;;;;13.35;2.25;;;;;;;29.79;26.90;100652.25;6281497;22;20006;-64
2022/08/10 14:22:34;;;;;;;20.00;2.42;;;;;;;29.80;27.56;100664.97;6278470;22;20004;-64
2022/08/10 14:25:07;;;;;;;11.90;2.15;;;;;;;29.69;27.12;100639.06;6276732;22;20114;-65
2022/08/10 14:27:35;;;;;;;8.27;1.38;;;;;;;29.62;27.40;100638.41;6276411;22;20039;-65
2022/08/10 14:30:04;;;;;;;10.27;1.63;;;;;;;29.79;27.32;100660.56;6279184;22;20004;-64
2022/08/10 14:32:31;;;;;;;10.77;2.15;;;;;;;29.74;27.21;100644.72;6280026;22;20008;-64
2022/08/10 14:35:06;;;;;;;9.70;1.92;;;;;;;29.71;27.23;100641.59;6277853;22;20472;-64
2022/08/10 14:37:36;;;;;;;12.07;1.80;;;;;;;29.78;27.03;100653.31;6277613;22;20019;-64
2022/08/10 14:40:10;;;;;;;16.08;2.10;;;;;;;29.67;27.32;100648.72;6280009;22;20371;-64
2022/08/10 14:42:48;;;;;;;17.10;2.38;;;;;;;29.72;27.16;100657.09;6280088;22;20003;-65
2022/08/10 14:45:22;;;;;;;10.20;1.65;;;;;;;29.77;27.02;100660.81;6279641;22;20015;-65
2022/08/10 14:47:51;;;;;;;24.40;2.15;;;;;;;29.78;27.63;100656.09;6274650;22;20090;-64
2022/08/10 14:50:23;;;;;;;15.95;1.88;;;;;;;29.72;27.59;100643.25;6272993;22;20428;-64
2022/08/10 14:52:50;;;;;;;5.05;1.45;;;;;;;29.71;27.41;100639.69;6273252;22;20010;-65
2022/08/10 14:55:17;;;;;;;9.73;1.45;;;;;;;29.66;27.21;100633.22;6272854;22;20007;-65
2022/08/10 14:57:44;;;;;;;3.10;1.20;;;;;;;29.60;27.22;100628.66;6271824;22;20367;-65
2022/08/10 15:00:11;;;;;;;6.55;1.52;;;;;;;29.63;27.85;100642.84;6274299;22;20013;-67
2022/08/10 15:02:44;;;;;;;9.38;1.80;;;;;;;29.60;27.87;100640.53;6271802;22;20007;-65
2022/08/10 15:05:12;;;;;;;12.23;1.45;;;;;;;29.55;28.28;100632.19;6271263;22;20012;-65
2022/08/10 15:07:39;;;;;;;14.05;2.00;;;;;;;29.63;28.06;100639.25;6272840;22;20076;-65
2022/08/10 15:10:09;;;;;;;5.80;1.48;;;;;;;29.58;28.24;100630.81;6273079;22;20014;-65
2022/08/10 15:12:39;;;;;;;5.82;1.55;;;;;;;29.66;27.91;100638.75;6272830;22;20071;-64
2022/08/10 15:15:11;;;;;;;9.48;1.80;;;;;;;29.68;27.29;100648.47;6268726;22;20008;-65
2022/08/10 15:17:41;;;;;;;4.88;1.52;;;;;;;29.66;27.28;100639.56;6269338;22;20090;-65
2022/08/10 15:20:16;;;;;;;7.82;1.80;;;;;;;29.63;27.50;100634.53;6271549;22;19999;-65
2022/08/10 15:23:12;;;;;;;6.28;1.35;;;;;;;29.58;27.39;100648.28;6270486;22;20006;-65
2022/08/10 15:25:45;;;;;;;9.73;1.90;;;;;;;29.58;27.74;100651.03;6239447;22;20615;-65
2022/08/10 15:28:13;;;;;;;12.43;2.13;;;;;;;29.49;27.59;100624.88;6270874;22;20007;-65
2022/08/10 15:30:41;;;;;;;10.25;1.65;;;;;;;29.49;27.44;100632.31;6272764;22;20353;-65
2022/08/10 15:38:45;;;;;;;3.20;1.55;;;;;;;29.59;27.14;100629.72;6272239;22;20030;-66
2022/08/10 15:41:13;;;;;;;3.80;1.15;;;;;;;29.54;27.58;100629.66;6272541;22;20003;-65
2022/08/10 15:43:39;;;;;;;2.35;1.23;;;;;;;29.61;27.47;100641.44;6271776;22;20015;-66
2022/08/10 15:46:37;;;;;;;4.63;1.50;;;;;;;29.61;27.59;100645.03;6271796;22;20087;-65
2022/08/10 15:49:08;;;;;;;7.60;1.70;;;;;;;29.57;27.55;100645.75;6203421;22;20019;-65
2022/08/10 15:51:43;;;;;;;4.90;1.50;;;;;;;29.47;27.95;100629.00;6271988;22;20007;-66
2022/08/10 15:54:12;;;;;;;4.20;1.40;;;;;;;29.49;27.93;100640.63;6271706;22;20003;-65
2022/08/10 15:56:48;;;;;;;6.80;1.73;;;;;;;29.41;27.95;100630.00;6271895;22;20019;-65
2022/08/10 15:59:47;;;;;;;5.13;1.50;;;;;;;29.42;28.11;100637.19;6271431;22;20000;-66
2022/08/10 16:02:19;;;;;;;8.82;1.40;;;;;;;29.25;28.51;100622.50;6248021;22;20019;-65
2022/08/10 16:04:48;;;;;;;2.97;1.85;;;;;;;29.28;28.08;100644.13;6271536;22;20010;-65
2022/08/10 16:07:38;;;;;;;6.55;1.58;;;;;;;29.22;28.29;100643.19;6271441;22;20007;-65
2022/08/10 16:10:08;;;;;;;10.07;1.52;;;;;;;29.15;27.98;100633.38;6271781;22;20011;-65
2022/08/10 16:13:04;;;;;;;5.53;1.73;;;;;;;29.15;28.11;100642.50;6271876;22;20011;-65
2022/08/10 16:15:32;;;;;;;5.68;1.58;;;;;;;29.06;28.17;100637.63;6268095;22;20011;-66
2022/08/10 16:18:08;;;;;;;5.30;1.70;;;;;;;29.04;28.63;100639.78;6271716;22;20004;-65
2022/08/10 16:20:41;;;;;;;7.38;1.50;;;;;;;29.01;28.27;100640.28;6271833;22;20114;-65
2022/08/10 16:23:10;;;;;;;5.45;1.50;;;;;;;28.93;28.38;100624.91;6269834;22;20004;-65
2022/08/10 16:25:38;;;;;;;3.67;1.30;;;;;;;29.04;28.57;100637.88;6271336;22;20046;-65
2022/08/10 16:28:08;;;;;;;14.15;2.45;;;;;;;28.96;28.80;100642.91;6271042;22;20102;-65
2022/08/10 16:30:54;;;;;;;15.80;1.80;;;;;;;28.86;28.92;100643.56;6271517;22;20003;-65
2022/08/10 16:33:27;;;;;;;7.25;1.45;;;;;;;28.84;29.21;100640.19;6271756;22;20486;-65
2022/08/10 16:35:59;;;;;;;5.35;1.30;;;;;;;28.75;28.81;100630.63;6271745;22;20126;-65
2022/08/10 16:38:25;;;;;;;73.05;6.53;;;;;;;28.69;28.88;100656.44;6271084;22;20019;-65
2022/08/10 16:40:53;;;;;;;5.72;1.55;;;;;;;28.74;28.78;100658.47;6270024;22;19999;-65
2022/08/10 16:43:23;;;;;;;4.47;1.70;;;;;;;28.72;29.16;100657.91;6271644;22;20026;-65
2022/08/10 16:45:51;;;;;;;3.20;1.20;;;;;;;28.66;29.24;100656.13;6270818;22;20015;-65
2022/08/10 16:48:20;;;;;;;3.50;1.40;;;;;;;28.61;29.17;100651.31;6271502;22;20373;-65
2022/08/10 16:50:53;;;;;;;6.15;1.30;;;;;;;28.61;29.49;100647.72;6271379;22;20011;-66
2022/08/10 16:53:20;;;;;;;5.70;1.30;;;;;;;28.54;29.20;100643.16;6271073;22;20007;-65
2022/08/10 16:55:56;;;;;;;4.22;1.10;;;;;;;28.48;29.29;100635.03;6271246;22;20414;-65
2022/08/10 16:58:29;;;;;;;4.55;1.80;;;;;;;28.54;29.37;100656.97;6271574;22;20078;-65
2022/08/10 17:01:05;;;;;;;6.63;1.35;;;;;;;28.38;29.38;100638.34;6271384;22;20482;-65
2022/08/10 17:03:36;;;;;;;4.35;1.45;;;;;;;28.43;29.68;100657.81;6270908;22;20686;-65
2022/08/10 17:06:04;;;;;;;4.55;1.33;;;;;;;28.41;29.56;100664.66;6271128;22;20022;-66
2022/08/10 17:08:31;;;;;;;4.97;1.60;;;;;;;28.36;29.35;100667.28;6271493;22;20011;-66
2022/08/10 17:10:57;;;;;;;5.72;1.30;;;;;;;28.32;29.54;100666.94;6270969;22;20010;-65
2022/08/10 17:13:26;;;;;;;4.30;1.52;;;;;;;28.12;28.94;100649.09;6270115;22;20011;-66
2022/08/10 17:16:04;;;;;;;6.68;1.58;;;;;;;28.18;29.08;100670.19;6271109;22;20000;-66
2022/08/10 17:18:35;;;;;;;14.25;2.40;;;;;;;28.13;29.44;100668.16;6271472;22;20046;-66
2022/08/10 17:21:08;;;;;;;13.18;2.45;;;;;;;27.97;29.62;100657.84;6269629;22;20023;-64
2022/08/10 17:23:38;;;;;;;10.40;1.40;;;;;;;27.94;29.75;100663.84;6271281;22;20010;-65
2022/08/10 17:26:09;;;;;;;5.97;1.52;;;;;;;27.89;29.60;100680.25;6270818;22;20083;-65
2022/08/10 17:28:40;;;;;;;3.35;1.30;;;;;;;27.75;29.84;100667.75;6267925;22;20424;-65
2022/08/10 17:31:11;;;;;;;4.82;1.25;;;;;;;27.74;29.76;100677.09;6269764;22;20003;-66
2022/08/10 17:33:42;;;;;;;4.63;1.63;;;;;;;27.71;29.87;100677.56;6271220;22;20004;-65
2022/08/10 17:36:11;;;;;;;3.97;1.38;;;;;;;27.59;30.00;100667.56;6271425;22;20377;-65
2022/08/10 17:38:37;;;;;;;1.98;1.30;;;;;;;27.66;29.91;100682.13;6269606;22;20008;-66
2022/08/10 17:41:07;;;;;;;4.75;1.60;;;;;;;27.62;30.37;100690.00;6271097;22;20029;-66
2022/08/10 17:43:35;;;;;;;4.40;1.40;;;;;;;27.58;30.13;100687.97;6270001;22;20007;-66
2022/08/10 17:46:01;;;;;;;7.25;1.88;;;;;;;27.50;30.36;100683.63;6271220;22;20024;-65
2022/08/10 17:48:33;;;;;;;3.35;1.33;;;;;;;27.48;30.35;100682.19;6271258;22;20015;-65
2022/08/10 17:51:00;;;;;;;2.17;1.23;;;;;;;27.46;30.60;100684.31;6271003;22;20015;-65
2022/08/10 17:53:46;;;;;;;4.40;1.30;;;;;;;27.37;30.51;100683.81;6270743;22;20008;-66
2022/08/10 17:56:14;;;;;;;5.65;1.23;;;;;;;27.32;30.42;100680.09;6268104;22;20004;-66
2022/08/10 17:58:46;;;;;;;2.55;1.20;;;;;;;27.32;30.73;100686.47;6269476;22;19999;-66
2022/08/10 18:01:18;;;;;;;2.97;1.20;;;;;;;27.27;30.53;100683.53;6269012;22;20008;-65
2022/08/10 18:03:49;;;;;;;5.22;1.42;;;;;;;27.25;30.61;100688.47;6268996;22;20109;-66
2022/08/10 18:06:18;;;;;;;3.45;1.35;;;;;;;27.18;30.62;100690.41;6266685;22;20546;-66
2022/08/10 18:08:55;;;;;;;14.52;2.00;;;;;;;27.15;31.00;100690.88;6269057;22;20011;-66
2022/08/10 18:11:24;;;;;;;8.50;1.40;;;;;;;27.11;31.11;100694.38;6266093;22;20017;-66
2022/08/10 18:13:55;;;;;;;9.38;1.60;;;;;;;27.01;30.76;100689.41;6268625;22;20014;-66
2022/08/10 18:16:28;;;;;;;12.48;1.70;;;;;;;27.03;31.32;100713.94;6266408;22;20022;-66
2022/08/10 18:19:03;;;;;;;5.00;1.47;;;;;;;26.89;31.61;100696.75;6269590;22;20007;-66
2022/08/10 18:21:30;;;;;;;5.20;1.67;;;;;;;26.89;31.77;100702.25;6268189;22;20064;-66
2022/08/10 18:24:05;;;;;;;4.47;1.90;;;;;;;26.82;31.92;100706.19;6268908;22;20038;-66
2022/08/10 18:26:35;;;;;;;3.58;1.50;;;;;;;26.73;32.23;100704.81;6267571;22;20015;-65
2022/08/10 18:29:05;;;;;;;5.20;1.65;;;;;;;26.74;32.40;100709.22;6270956;22;20775;-66
2022/08/10 18:31:32;;;;;;;6.03;1.38;;;;;;;26.53;32.76;100693.97;6270376;22;20321;-66
2022/08/10 18:33:59;;;;;;;3.80;1.55;;;;;;;26.55;32.92;100716.63;6269271;22;20011;-66
2022/08/10 18:36:26;;;;;;;6.50;2.17;;;;;;;26.43;33.13;100711.03;6268220;22;20483;-66
2022/08/10 18:38:55;;;;;;;18.30;2.83;;;;;;;26.30;33.62;100702.06;6271153;22;20012;-65
2022/08/10 18:41:29;;;;;;;11.90;2.63;;;;;;;26.28;33.74;100720.72;6269720;22;20007;-66
2022/08/10 18:44:00;;;;;;;12.40;2.08;;;;;;;26.16;33.55;100723.38;6271004;22;20003;-66
2022/08/10 18:46:29;;;;;;;5.45;2.03;;;;;;;26.06;34.22;100717.53;6268629;22;20022;-65
2022/08/10 18:49:11;;;;;;;9.32;2.20;;;;;;;26.00;34.34;100718.44;6271165;22;20111;-66
2022/08/10 18:51:41;;;;;;;9.05;1.88;;;;;;;25.83;34.40;100708.19;6268568;22;20015;-66
2022/08/10 18:54:11;;;;;;;6.78;1.90;;;;;;;25.78;34.79;100724.50;6270479;22;20011;-65
2022/08/10 18:56:57;;;;;;;7.97;1.80;;;;;;;25.69;34.94;100726.69;6270550;22;19995;-65
2022/08/10 18:59:44;;;;;;;8.82;1.58;;;;;;;25.62;35.14;100731.41;6269581;22;20016;-66
2022/08/10 19:02:47;;;;;;;7.53;1.95;;;;;;;25.54;35.34;100739.88;6270030;22;20050;-66
2022/08/10 19:05:25;;;;;;;6.82;1.80;;;;;;;25.33;35.47;100722.91;6270437;22;20377;-66
2022/08/10 19:08:13;;;;;;;4.43;1.67;;;;;;;25.35;35.67;100738.13;6269454;22;20446;-66
2022/08/10 19:10:51;;;;;;;4.70;1.65;;;;;;;25.30;35.69;100734.31;6268060;22;20015;-66
2022/08/10 19:13:44;;;;;;;5.93;1.70;;;;;;;25.23;35.90;100739.00;6270663;22;20353;-66
2022/08/10 19:16:31;;;;;;;9.60;2.83;;;;;;;25.14;35.96;100740.31;6270900;22;20387;-65
2022/08/10 19:19:06;;;;;;;12.75;2.53;;;;;;;25.07;36.36;100742.25;6267888;22;20612;-66
2022/08/10 19:21:38;;;;;;;9.38;2.42;;;;;;;24.85;36.45;100722.50;6270799;22;19999;-66
2022/08/10 19:24:18;;;;;;;6.88;2.40;;;;;;;24.88;36.65;100741.28;6270202;22;20347;-66
2022/08/10 19:27:13;;;;;;;9.57;2.58;;;;;;;24.78;36.83;100748.28;6268525;22;20012;-66
2022/08/10 19:30:16;;;;;;;9.90;2.35;;;;;;;24.67;37.17;100746.22;6270242;22;20039;-65
2022/08/10 19:33:01;;;;;;;5.82;2.05;;;;;;;24.58;37.12;100747.47;6146671;23;20017;-66
2022/08/10 19:36:04;;;;;;;7.40;1.90;;;;;;;24.51;37.47;100746.63;6285604;22;20442;-66
2022/08/10 19:39:30;;;;;;;7.97;2.38;;;;;;;24.37;37.64;100735.69;6269818;22;20478;-66
2022/08/10 19:42:01;;;;;;;;;;;;;;;24.31;38.05;100750.25;6147358;23;20009;-66
2022/08/10 19:44:43;;;;;;;10.60;1.88;;;;;;;24.25;38.11;100753.84;6249183;22;20327;-66
2022/08/10 19:47:19;;;;;;;9.85;2.05;;;;;;;24.14;38.33;100751.75;6269238;22;20069;-66
2022/08/10 19:49:45;;;;;;;14.45;2.30;;;;;;;24.08;38.29;100757.22;6270243;22;20008;-66
2022/08/10 19:52:25;;;;;;;11.98;2.08;;;;;;;24.00;38.62;100761.03;6270349;22;20030;-66
2022/08/10 19:55:03;;;;;;;6.55;2.08;;;;;;;23.93;38.85;100762.06;6267289;22;20443;-66
2022/08/10 19:57:50;;;;;;;7.78;2.15;;;;;;;23.84;38.89;100766.91;6268354;22;20435;-66
2022/08/10 20:00:16;;;;;;;15.50;2.42;;;;;;;23.73;39.11;100764.75;6268160;22;20416;-66
2022/08/10 20:03:03;;;;;;;9.40;2.38;;;;;;;23.67;39.32;100762.84;6268818;22;20034;-66
2022/08/10 20:05:51;;;;;;;16.73;2.00;;;;;;;23.59;40.01;100759.47;6268273;22;20008;-66